sensor_id;sensor_type;location;lat;lon;timestamp;pressure;altitude;pressure_sealevel;temperature;humidity
72370;BME280;60343;-32.030;115.880;2023-04-30T00:00:07;102128.75;;;11.18;83.25
72370;BME280;60343;-32.030;115.880;2023-04-30T00:02:42;102121.47;;;11.48;82.79
72370;BME280;60343;-32.030;115.880;2023-04-30T00:05:16;102113.22;;;11.78;81.73
72370;BME280;60343;-32.030;115.880;2023-04-30T00:07:51;102118.59;;;12.23;80.12
72370;BME280;60343;-32.030;115.880;2023-04-30T00:10:26;102110.88;;;12.73;75.88
72370;BME280;60343;-32.030;115.880;2023-04-30T00:13:00;102116.41;;;13.07;73.42
72370;BME280;60343;-32.030;115.880;2023-04-30T00:15:42;102119.63;;;13.62;71.64
72370;BME280;60343;-32.030;115.880;2023-04-30T00:18:16;102110.22;;;14.08;70.86
72370;BME280;60343;-32.030;115.880;2023-04-30T00:20:50;102110.47;;;14.31;69.34
72370;BME280;60343;-32.030;115.880;2023-04-30T00:23:25;102114.59;;;14.43;68.74
72370;BME280;60343;-32.030;115.880;2023-04-30T00:25:59;102115.59;;;14.42;68.94
72370;BME280;60343;-32.030;115.880;2023-04-30T00:28:34;102110.19;;;14.50;68.56
72370;BME280;60343;-32.030;115.880;2023-04-30T00:31:14;102114.63;;;14.92;67.22
72370;BME280;60343;-32.030;115.880;2023-04-30T00:33:48;102111.06;;;15.16;66.44
72370;BME280;60343;-32.030;115.880;2023-04-30T00:36:23;102120.97;;;15.31;64.42
72370;BME280;60343;-32.030;115.880;2023-04-30T00:38:57;102122.50;;;15.26;63.73
72370;BME280;60343;-32.030;115.880;2023-04-30T00:41:32;102117.94;;;15.42;64.56
72370;BME280;60343;-32.030;115.880;2023-04-30T00:44:08;102105.63;;;15.95;62.73
72370;BME280;60343;-32.030;115.880;2023-04-30T00:46:48;102095.50;;;16.51;60.87
72370;BME280;60343;-32.030;115.880;2023-04-30T00:49:22;102094.19;;;17.15;59.60
72370;BME280;60343;-32.030;115.880;2023-04-30T00:51:57;102095.59;;;17.99;57.52
72370;BME280;60343;-32.030;115.880;2023-04-30T00:54:31;102087.66;;;18.33;56.24
72370;BME280;60343;-32.030;115.880;2023-04-30T00:57:07;102094.44;;;18.44;55.04
72370;BME280;60343;-32.030;115.880;2023-04-30T00:59:44;102100.31;;;18.12;57.03
72370;BME280;60343;-32.030;115.880;2023-04-30T01:02:24;102097.84;;;18.31;56.93
72370;BME280;60343;-32.030;115.880;2023-04-30T01:04:59;102091.56;;;18.46;55.77
72370;BME280;60343;-32.030;115.880;2023-04-30T01:07:34;102088.88;;;18.31;55.30
72370;BME280;60343;-32.030;115.880;2023-04-30T01:10:12;102091.47;;;18.39;55.58
72370;BME280;60343;-32.030;115.880;2023-04-30T01:12:52;102078.84;;;18.89;54.56
72370;BME280;60343;-32.030;115.880;2023-04-30T01:15:34;102081.84;;;19.28;52.99
72370;BME280;60343;-32.030;115.880;2023-04-30T01:18:19;102074.50;;;19.97;52.61
72370;BME280;60343;-32.030;115.880;2023-04-30T01:21:06;102068.25;;;20.71;51.40
72370;BME280;60343;-32.030;115.880;2023-04-30T01:24:12;102069.69;;;21.13;49.32
72370;BME280;60343;-32.030;115.880;2023-04-30T01:26:58;102063.44;;;21.25;46.64
72370;BME280;60343;-32.030;115.880;2023-04-30T01:29:39;102062.38;;;21.07;48.84
72370;BME280;60343;-32.030;115.880;2023-04-30T01:32:14;102054.16;;;21.53;47.46
72370;BME280;60343;-32.030;115.880;2023-04-30T01:34:49;102046.78;;;22.17;46.25
72370;BME280;60343;-32.030;115.880;2023-04-30T01:37:32;102039.09;;;22.64;45.66
72370;BME280;60343;-32.030;115.880;2023-04-30T01:40:21;102039.44;;;22.74;44.88
72370;BME280;60343;-32.030;115.880;2023-04-30T01:43:04;102044.03;;;22.80;43.52
72370;BME280;60343;-32.030;115.880;2023-04-30T01:45:58;102049.41;;;22.93;43.36
72370;BME280;60343;-32.030;115.880;2023-04-30T01:48:42;102045.72;;;23.24;43.41
72370;BME280;60343;-32.030;115.880;2023-04-30T01:51:27;102034.28;;;23.70;42.36
72370;BME280;60343;-32.030;115.880;2023-04-30T01:54:05;102038.91;;;23.88;42.32
72370;BME280;60343;-32.030;115.880;2023-04-30T01:56:42;102031.97;;;23.85;43.06
72370;BME280;60343;-32.030;115.880;2023-04-30T01:59:20;102031.94;;;24.22;41.79
72370;BME280;60343;-32.030;115.880;2023-04-30T02:02:02;102024.25;;;24.42;40.73
72370;BME280;60343;-32.030;115.880;2023-04-30T02:04:36;102022.97;;;24.56;41.11
72370;BME280;60343;-32.030;115.880;2023-04-30T02:07:12;102013.47;;;24.70;40.07
72370;BME280;60343;-32.030;115.880;2023-04-30T02:09:51;102009.34;;;24.91;40.11
72370;BME280;60343;-32.030;115.880;2023-04-30T02:12:25;102017.47;;;25.09;38.04
72370;BME280;60343;-32.030;115.880;2023-04-30T02:15:00;102021.56;;;25.35;37.94
72370;BME280;60343;-32.030;115.880;2023-04-30T02:17:40;102021.00;;;25.45;37.26
72370;BME280;60343;-32.030;115.880;2023-04-30T02:20:14;102011.78;;;25.51;36.38
72370;BME280;60343;-32.030;115.880;2023-04-30T02:22:49;102009.03;;;25.51;35.92
72370;BME280;60343;-32.030;115.880;2023-04-30T02:25:24;101994.63;;;25.44;36.31
72370;BME280;60343;-32.030;115.880;2023-04-30T02:28:04;101999.34;;;25.72;36.92
72370;BME280;60343;-32.030;115.880;2023-04-30T02:30:38;102001.19;;;25.94;35.19
72370;BME280;60343;-32.030;115.880;2023-04-30T02:33:18;102000.53;;;26.04;34.50
72370;BME280;60343;-32.030;115.880;2023-04-30T02:35:53;101999.06;;;26.13;34.34
72370;BME280;60343;-32.030;115.880;2023-04-30T02:38:27;102013.28;;;26.10;34.28
72370;BME280;60343;-32.030;115.880;2023-04-30T02:41:02;102001.28;;;26.16;33.70
72370;BME280;60343;-32.030;115.880;2023-04-30T02:43:36;102007.59;;;26.00;36.73
72370;BME280;60343;-32.030;115.880;2023-04-30T02:46:11;101999.53;;;25.82;37.90
72370;BME280;60343;-32.030;115.880;2023-04-30T02:48:51;102007.00;;;25.46;37.37
72370;BME280;60343;-32.030;115.880;2023-04-30T02:51:25;101999.81;;;25.05;39.55
72370;BME280;60343;-32.030;115.880;2023-04-30T02:53:59;101999.22;;;24.92;39.26
72370;BME280;60343;-32.030;115.880;2023-04-30T02:56:34;101990.25;;;24.73;38.12
72370;BME280;60343;-32.030;115.880;2023-04-30T02:59:08;101993.66;;;24.45;38.98
72370;BME280;60343;-32.030;115.880;2023-04-30T03:01:43;102000.34;;;24.08;39.50
72370;BME280;60343;-32.030;115.880;2023-04-30T03:04:23;101993.81;;;24.09;40.21
72370;BME280;60343;-32.030;115.880;2023-04-30T03:06:57;101987.16;;;24.16;40.23
72370;BME280;60343;-32.030;115.880;2023-04-30T03:09:33;101986.28;;;24.34;40.55
72370;BME280;60343;-32.030;115.880;2023-04-30T03:12:07;101971.78;;;24.57;40.53
72370;BME280;60343;-32.030;115.880;2023-04-30T03:14:42;101968.69;;;24.65;39.29
72370;BME280;60343;-32.030;115.880;2023-04-30T03:17:16;101963.22;;;24.76;38.45
72370;BME280;60343;-32.030;115.880;2023-04-30T03:19:56;101959.91;;;24.98;37.61
72370;BME280;60343;-32.030;115.880;2023-04-30T03:22:31;101953.81;;;25.19;37.97
72370;BME280;60343;-32.030;115.880;2023-04-30T03:25:06;101948.53;;;25.29;36.75
72370;BME280;60343;-32.030;115.880;2023-04-30T03:27:40;101949.22;;;25.36;37.78
72370;BME280;60343;-32.030;115.880;2023-04-30T03:30:16;101921.38;;;25.68;35.00
72370;BME280;60343;-32.030;115.880;2023-04-30T03:32:50;101926.31;;;25.42;33.86
72370;BME280;60343;-32.030;115.880;2023-04-30T03:35:31;101925.81;;;25.57;34.90
72370;BME280;60343;-32.030;115.880;2023-04-30T03:38:05;101926.66;;;25.57;33.44
72370;BME280;60343;-32.030;115.880;2023-04-30T03:40:40;101927.50;;;25.58;34.33
72370;BME280;60343;-32.030;115.880;2023-04-30T03:43:14;101923.91;;;25.46;33.64
72370;BME280;60343;-32.030;115.880;2023-04-30T03:45:49;101916.94;;;25.38;34.74
72370;BME280;60343;-32.030;115.880;2023-04-30T03:48:23;101904.81;;;25.23;33.22
72370;BME280;60343;-32.030;115.880;2023-04-30T03:51:03;101905.25;;;25.31;33.75
72370;BME280;60343;-32.030;115.880;2023-04-30T03:53:38;101909.16;;;25.35;33.42
72370;BME280;60343;-32.030;115.880;2023-04-30T03:56:12;101901.63;;;25.14;33.86
72370;BME280;60343;-32.030;115.880;2023-04-30T03:58:47;101905.50;;;24.90;34.70
72370;BME280;60343;-32.030;115.880;2023-04-30T04:01:24;101898.56;;;24.87;34.45
72370;BME280;60343;-32.030;115.880;2023-04-30T04:03:59;101894.16;;;24.98;32.50
72370;BME280;60343;-32.030;115.880;2023-04-30T04:06:39;101885.22;;;24.79;32.94
72370;BME280;60343;-32.030;115.880;2023-04-30T04:09:14;101881.38;;;24.80;35.34
72370;BME280;60343;-32.030;115.880;2023-04-30T04:11:48;101869.63;;;24.79;33.96
72370;BME280;60343;-32.030;115.880;2023-04-30T04:14:23;101863.69;;;24.59;35.81
72370;BME280;60343;-32.030;115.880;2023-04-30T04:16:57;101864.72;;;24.82;33.73
72370;BME280;60343;-32.030;115.880;2023-04-30T04:19:32;101864.41;;;24.90;32.42
72370;BME280;60343;-32.030;115.880;2023-04-30T04:22:12;101859.16;;;24.65;34.55
72370;BME280;60343;-32.030;115.880;2023-04-30T04:24:47;101862.38;;;24.73;34.15
72370;BME280;60343;-32.030;115.880;2023-04-30T04:27:21;101860.81;;;24.89;33.56
72370;BME280;60343;-32.030;115.880;2023-04-30T04:29:56;101850.81;;;24.95;34.54
72370;BME280;60343;-32.030;115.880;2023-04-30T04:32:30;101846.03;;;24.78;35.74
72370;BME280;60343;-32.030;115.880;2023-04-30T04:35:08;101847.84;;;24.73;35.75
72370;BME280;60343;-32.030;115.880;2023-04-30T04:37:48;101826.56;;;24.52;35.88
72370;BME280;60343;-32.030;115.880;2023-04-30T04:40:23;101826.31;;;24.53;36.38
72370;BME280;60343;-32.030;115.880;2023-04-30T04:42:57;101820.06;;;24.81;35.54
72370;BME280;60343;-32.030;115.880;2023-04-30T04:45:31;101814.50;;;24.88;36.25
72370;BME280;60343;-32.030;115.880;2023-04-30T04:48:07;101806.47;;;24.98;35.23
72370;BME280;60343;-32.030;115.880;2023-04-30T04:50:41;101801.19;;;25.08;35.74
72370;BME280;60343;-32.030;115.880;2023-04-30T04:53:21;101801.09;;;25.31;34.64
72370;BME280;60343;-32.030;115.880;2023-04-30T04:55:56;101795.81;;;25.13;35.30
72370;BME280;60343;-32.030;115.880;2023-04-30T04:58:30;101790.03;;;24.98;35.35
72370;BME280;60343;-32.030;115.880;2023-04-30T05:01:05;101784.34;;;24.88;35.30
72370;BME280;60343;-32.030;115.880;2023-04-30T05:03:39;101777.81;;;24.77;35.67
72370;BME280;60343;-32.030;115.880;2023-04-30T05:06:13;101774.94;;;24.84;36.05
72370;BME280;60343;-32.030;115.880;2023-04-30T05:08:53;101764.53;;;24.97;35.38
72370;BME280;60343;-32.030;115.880;2023-04-30T05:11:28;101768.78;;;25.05;34.57
72370;BME280;60343;-32.030;115.880;2023-04-30T05:14:03;101763.25;;;25.00;34.66
72370;BME280;60343;-32.030;115.880;2023-04-30T05:16:37;101769.84;;;25.32;34.74
72370;BME280;60343;-32.030;115.880;2023-04-30T05:19:13;101763.16;;;25.40;33.58
72370;BME280;60343;-32.030;115.880;2023-04-30T05:21:48;101761.94;;;25.19;34.12
72370;BME280;60343;-32.030;115.880;2023-04-30T05:24:28;101764.75;;;25.07;34.98
72370;BME280;60343;-32.030;115.880;2023-04-30T05:27:03;101753.50;;;25.37;35.20
72370;BME280;60343;-32.030;115.880;2023-04-30T05:29:37;101748.66;;;25.28;34.79
72370;BME280;60343;-32.030;115.880;2023-04-30T05:32:12;101744.22;;;25.10;35.54
72370;BME280;60343;-32.030;115.880;2023-04-30T05:34:46;101744.59;;;25.30;35.08
72370;BME280;60343;-32.030;115.880;2023-04-30T05:37:21;101753.44;;;25.49;34.48
72370;BME280;60343;-32.030;115.880;2023-04-30T05:40:01;101758.53;;;25.57;34.48
72370;BME280;60343;-32.030;115.880;2023-04-30T05:42:35;101756.66;;;25.29;34.98
72370;BME280;60343;-32.030;115.880;2023-04-30T05:45:12;101757.66;;;25.40;34.68
72370;BME280;60343;-32.030;115.880;2023-04-30T05:47:47;101762.41;;;25.44;34.92
72370;BME280;60343;-32.030;115.880;2023-04-30T05:50:22;101759.25;;;25.52;34.65
72370;BME280;60343;-32.030;115.880;2023-04-30T05:52:56;101755.03;;;25.61;37.48
72370;BME280;60343;-32.030;115.880;2023-04-30T05:55:36;101747.44;;;25.52;38.90
72370;BME280;60343;-32.030;115.880;2023-04-30T05:58:11;101741.00;;;25.13;39.88
72370;BME280;60343;-32.030;115.880;2023-04-30T06:00:48;101732.06;;;24.89;41.55
72370;BME280;60343;-32.030;115.880;2023-04-30T06:03:23;101738.56;;;25.00;40.16
72370;BME280;60343;-32.030;115.880;2023-04-30T06:05:58;101748.25;;;25.36;40.32
72370;BME280;60343;-32.030;115.880;2023-04-30T06:08:32;101734.59;;;24.79;41.78
72370;BME280;60343;-32.030;115.880;2023-04-30T06:11:14;101727.94;;;25.03;40.84
72370;BME280;60343;-32.030;115.880;2023-04-30T06:13:49;101736.59;;;24.84;41.62
72370;BME280;60343;-32.030;115.880;2023-04-30T06:16:23;101742.63;;;24.86;41.75
72370;BME280;60343;-32.030;115.880;2023-04-30T06:18:58;101749.59;;;24.76;42.40
72370;BME280;60343;-32.030;115.880;2023-04-30T06:21:32;101735.75;;;24.95;42.06
72370;BME280;60343;-32.030;115.880;2023-04-30T06:24:07;101731.00;;;25.52;40.25
72370;BME280;60343;-32.030;115.880;2023-04-30T06:26:47;101738.81;;;25.77;38.92
72370;BME280;60343;-32.030;115.880;2023-04-30T06:29:22;101737.72;;;25.44;40.01
72370;BME280;60343;-32.030;115.880;2023-04-30T06:31:58;101729.63;;;25.21;40.07
72370;BME280;60343;-32.030;115.880;2023-04-30T06:34:32;101730.63;;;24.75;41.87
72370;BME280;60343;-32.030;115.880;2023-04-30T06:37:07;101734.69;;;24.44;42.70
72370;BME280;60343;-32.030;115.880;2023-04-30T06:39:42;101728.84;;;24.41;42.71
72370;BME280;60343;-32.030;115.880;2023-04-30T06:42:22;101733.19;;;25.21;40.60
72370;BME280;60343;-32.030;115.880;2023-04-30T06:44:59;101738.16;;;24.79;41.15
72370;BME280;60343;-32.030;115.880;2023-04-30T06:47:34;101738.63;;;24.76;41.49
72370;BME280;60343;-32.030;115.880;2023-04-30T06:50:09;101732.06;;;24.89;40.83
72370;BME280;60343;-32.030;115.880;2023-04-30T06:52:44;101730.09;;;24.61;41.21
72370;BME280;60343;-32.030;115.880;2023-04-30T06:55:18;101737.44;;;24.72;41.69
72370;BME280;60343;-32.030;115.880;2023-04-30T06:58:00;101722.28;;;24.53;41.59
72370;BME280;60343;-32.030;115.880;2023-04-30T07:00:34;101733.84;;;24.84;41.24
72370;BME280;60343;-32.030;115.880;2023-04-30T07:03:09;101731.56;;;24.52;40.82
72370;BME280;60343;-32.030;115.880;2023-04-30T07:05:44;101737.56;;;24.38;42.29
72370;BME280;60343;-32.030;115.880;2023-04-30T07:08:20;101738.00;;;24.34;41.63
72370;BME280;60343;-32.030;115.880;2023-04-30T07:10:54;101735.66;;;24.78;40.93
72370;BME280;60343;-32.030;115.880;2023-04-30T07:13:34;101737.38;;;24.56;41.08
72370;BME280;60343;-32.030;115.880;2023-04-30T07:16:09;101735.78;;;24.31;41.57
72370;BME280;60343;-32.030;115.880;2023-04-30T07:18:43;101745.78;;;24.26;42.74
72370;BME280;60343;-32.030;115.880;2023-04-30T07:21:19;101744.53;;;24.57;41.94
72370;BME280;60343;-32.030;115.880;2023-04-30T07:23:54;101749.91;;;24.92;40.42
72370;BME280;60343;-32.030;115.880;2023-04-30T07:26:29;101756.03;;;24.70;40.81
72370;BME280;60343;-32.030;115.880;2023-04-30T07:29:09;101751.22;;;24.49;41.12
72370;BME280;60343;-32.030;115.880;2023-04-30T07:31:43;101756.72;;;24.26;41.83
72370;BME280;60343;-32.030;115.880;2023-04-30T07:34:18;101764.94;;;24.26;41.58
72370;BME280;60343;-32.030;115.880;2023-04-30T07:36:53;101760.88;;;23.82;42.27
72370;BME280;60343;-32.030;115.880;2023-04-30T07:39:27;101762.78;;;23.93;42.56
72370;BME280;60343;-32.030;115.880;2023-04-30T07:42:02;101766.94;;;23.84;42.86
72370;BME280;60343;-32.030;115.880;2023-04-30T07:44:43;101756.25;;;23.94;42.18
72370;BME280;60343;-32.030;115.880;2023-04-30T07:47:17;101761.78;;;23.64;43.50
72370;BME280;60343;-32.030;115.880;2023-04-30T07:49:52;101765.28;;;23.83;42.55
72370;BME280;60343;-32.030;115.880;2023-04-30T07:52:27;101760.84;;;23.70;43.25
72370;BME280;60343;-32.030;115.880;2023-04-30T07:55:01;101768.44;;;23.57;43.81
72370;BME280;60343;-32.030;115.880;2023-04-30T07:57:44;101768.00;;;23.41;44.91
72370;BME280;60343;-32.030;115.880;2023-04-30T08:00:34;101771.53;;;23.19;44.91
72370;BME280;60343;-32.030;115.880;2023-04-30T08:03:09;101773.09;;;23.26;44.12
72370;BME280;60343;-32.030;115.880;2023-04-30T08:05:44;101773.88;;;23.15;44.47
72370;BME280;60343;-32.030;115.880;2023-04-30T08:08:18;101780.91;;;22.93;44.82
72370;BME280;60343;-32.030;115.880;2023-04-30T08:10:53;101785.06;;;22.95;44.98
72370;BME280;60343;-32.030;115.880;2023-04-30T08:13:27;101774.00;;;22.90;44.45
72370;BME280;60343;-32.030;115.880;2023-04-30T08:16:08;101779.69;;;22.89;44.94
72370;BME280;60343;-32.030;115.880;2023-04-30T08:18:43;101784.56;;;22.87;43.83
72370;BME280;60343;-32.030;115.880;2023-04-30T08:21:18;101783.56;;;22.81;43.43
72370;BME280;60343;-32.030;115.880;2023-04-30T08:23:54;101794.94;;;22.60;43.30
72370;BME280;60343;-32.030;115.880;2023-04-30T08:26:28;101796.06;;;22.52;43.63
72370;BME280;60343;-32.030;115.880;2023-04-30T08:29:03;101797.97;;;22.52;43.98
72370;BME280;60343;-32.030;115.880;2023-04-30T08:31:43;101792.78;;;22.25;45.37
72370;BME280;60343;-32.030;115.880;2023-04-30T08:34:21;101791.47;;;22.10;46.57
72370;BME280;60343;-32.030;115.880;2023-04-30T08:36:58;101796.88;;;22.16;47.36
72370;BME280;60343;-32.030;115.880;2023-04-30T08:39:32;101804.91;;;22.11;48.32
72370;BME280;60343;-32.030;115.880;2023-04-30T08:42:14;101805.44;;;21.95;49.92
72370;BME280;60343;-32.030;115.880;2023-04-30T08:44:48;101807.09;;;21.71;51.54
72370;BME280;60343;-32.030;115.880;2023-04-30T08:47:29;101805.78;;;21.49;53.09
72370;BME280;60343;-32.030;115.880;2023-04-30T08:50:04;101801.09;;;21.31;53.47
72370;BME280;60343;-32.030;115.880;2023-04-30T08:55:40;101803.56;;;21.33;53.03
72370;BME280;60343;-32.030;115.880;2023-04-30T08:56:01;101805.16;;;21.16;54.28
72370;BME280;60343;-32.030;115.880;2023-04-30T08:58:36;101809.16;;;21.07;54.44
72370;BME280;60343;-32.030;115.880;2023-04-30T09:01:10;101811.91;;;20.93;54.41
72370;BME280;60343;-32.030;115.880;2023-04-30T09:03:50;101820.13;;;20.87;54.93
72370;BME280;60343;-32.030;115.880;2023-04-30T09:06:25;101817.41;;;20.87;54.71
72370;BME280;60343;-32.030;115.880;2023-04-30T09:09:08;101826.66;;;20.73;54.20
72370;BME280;60343;-32.030;115.880;2023-04-30T09:11:43;101829.63;;;20.65;54.18
72370;BME280;60343;-32.030;115.880;2023-04-30T09:14:23;101825.84;;;20.66;53.97
72370;BME280;60343;-32.030;115.880;2023-04-30T09:17:00;101835.28;;;20.57;53.68
72370;BME280;60343;-32.030;115.880;2023-04-30T09:19:40;101831.09;;;20.61;52.93
72370;BME280;60343;-32.030;115.880;2023-04-30T09:22:22;101830.91;;;20.62;52.55
72370;BME280;60343;-32.030;115.880;2023-04-30T09:24:57;101833.38;;;20.64;52.44
72370;BME280;60343;-32.030;115.880;2023-04-30T09:27:31;101829.66;;;20.45;52.73
72370;BME280;60343;-32.030;115.880;2023-04-30T09:30:08;101829.25;;;20.35;52.99
72370;BME280;60343;-32.030;115.880;2023-04-30T09:32:55;101825.28;;;20.24;52.86
72370;BME280;60343;-32.030;115.880;2023-04-30T09:35:36;101820.47;;;20.13;53.43
72370;BME280;60343;-32.030;115.880;2023-04-30T09:38:26;101814.63;;;20.09;52.90
72370;BME280;60343;-32.030;115.880;2023-04-30T09:41:01;101820.69;;;19.98;52.97
72370;BME280;60343;-32.030;115.880;2023-04-30T09:43:44;101828.00;;;19.85;53.42
72370;BME280;60343;-32.030;115.880;2023-04-30T09:46:19;101820.69;;;19.92;52.69
72370;BME280;60343;-32.030;115.880;2023-04-30T09:48:58;101821.53;;;19.79;52.86
72370;BME280;60343;-32.030;115.880;2023-04-30T09:51:53;101823.19;;;19.80;52.43
72370;BME280;60343;-32.030;115.880;2023-04-30T09:54:29;101834.06;;;19.60;52.22
72370;BME280;60343;-32.030;115.880;2023-04-30T09:57:04;101823.78;;;19.49;52.89
72370;BME280;60343;-32.030;115.880;2023-04-30T09:59:42;101836.25;;;19.37;53.25
72370;BME280;60343;-32.030;115.880;2023-04-30T10:02:17;101842.53;;;19.31;53.02
72370;BME280;60343;-32.030;115.880;2023-04-30T10:04:55;101836.66;;;19.21;52.83
72370;BME280;60343;-32.030;115.880;2023-04-30T10:07:38;101843.56;;;19.30;52.37
72370;BME280;60343;-32.030;115.880;2023-04-30T10:10:14;101853.59;;;19.29;52.34
72370;BME280;60343;-32.030;115.880;2023-04-30T10:12:51;101859.56;;;19.05;53.01
72370;BME280;60343;-32.030;115.880;2023-04-30T10:15:30;101863.34;;;19.17;52.66
72370;BME280;60343;-32.030;115.880;2023-04-30T10:18:10;101864.16;;;19.11;52.70
72370;BME280;60343;-32.030;115.880;2023-04-30T10:20:47;101868.50;;;18.99;53.13
72370;BME280;60343;-32.030;115.880;2023-04-30T10:23:27;101879.13;;;18.94;53.17
72370;BME280;60343;-32.030;115.880;2023-04-30T10:26:02;101886.34;;;18.80;53.48
72370;BME280;60343;-32.030;115.880;2023-04-30T10:28:37;101884.19;;;18.69;53.98
72370;BME280;60343;-32.030;115.880;2023-04-30T10:31:12;101884.88;;;18.78;53.36
72370;BME280;60343;-32.030;115.880;2023-04-30T10:33:53;101887.53;;;18.71;53.46
72370;BME280;60343;-32.030;115.880;2023-04-30T10:36:42;101881.75;;;18.53;54.17
72370;BME280;60343;-32.030;115.880;2023-04-30T10:39:25;101886.00;;;18.56;54.49
72370;BME280;60343;-32.030;115.880;2023-04-30T10:42:04;101889.47;;;18.50;54.55
72370;BME280;60343;-32.030;115.880;2023-04-30T10:44:37;101895.00;;;18.41;55.04
72370;BME280;60343;-32.030;115.880;2023-04-30T10:47:12;101897.03;;;18.33;55.36
72370;BME280;60343;-32.030;115.880;2023-04-30T10:49:47;101909.41;;;18.42;55.13
72370;BME280;60343;-32.030;115.880;2023-04-30T10:52:27;101897.34;;;18.44;55.51
72370;BME280;60343;-32.030;115.880;2023-04-30T10:55:15;101903.50;;;18.32;55.61
72370;BME280;60343;-32.030;115.880;2023-04-30T10:57:50;101907.47;;;18.36;55.89
72370;BME280;60343;-32.030;115.880;2023-04-30T11:00:26;101903.97;;;18.35;56.17
72370;BME280;60343;-32.030;115.880;2023-04-30T11:03:03;101911.19;;;18.28;56.41
72370;BME280;60343;-32.030;115.880;2023-04-30T11:05:38;101918.66;;;18.26;56.91
72370;BME280;60343;-32.030;115.880;2023-04-30T11:08:13;101923.47;;;18.24;57.19
72370;BME280;60343;-32.030;115.880;2023-04-30T11:11:07;101923.13;;;18.13;57.85
72370;BME280;60343;-32.030;115.880;2023-04-30T11:13:44;101930.06;;;18.15;58.04
72370;BME280;60343;-32.030;115.880;2023-04-30T11:16:19;101934.22;;;18.18;58.07
72370;BME280;60343;-32.030;115.880;2023-04-30T11:19:06;101935.25;;;18.17;58.21
72370;BME280;60343;-32.030;115.880;2023-04-30T11:21:50;101938.19;;;18.15;58.76
72370;BME280;60343;-32.030;115.880;2023-04-30T11:25:02;101935.47;;;18.15;59.04
72370;BME280;60343;-32.030;115.880;2023-04-30T11:27:43;101938.81;;;18.17;58.70
72370;BME280;60343;-32.030;115.880;2023-04-30T11:30:18;101945.06;;;18.18;58.90
72370;BME280;60343;-32.030;115.880;2023-04-30T11:32:53;101941.84;;;18.08;59.78
72370;BME280;60343;-32.030;115.880;2023-04-30T11:35:28;101944.56;;;18.08;59.85
72370;BME280;60343;-32.030;115.880;2023-04-30T11:38:03;101938.81;;;17.96;60.69
72370;BME280;60343;-32.030;115.880;2023-04-30T11:40:38;101939.66;;;17.96;60.76
72370;BME280;60343;-32.030;115.880;2023-04-30T11:43:28;101951.13;;;17.77;61.13
72370;BME280;60343;-32.030;115.880;2023-04-30T11:46:06;101949.97;;;17.65;61.91
72370;BME280;60343;-32.030;115.880;2023-04-30T11:48:42;101953.31;;;17.67;62.08
72370;BME280;60343;-32.030;115.880;2023-04-30T11:51:18;101955.84;;;17.54;63.07
72370;BME280;60343;-32.030;115.880;2023-04-30T11:53:53;101955.28;;;17.44;63.16
72370;BME280;60343;-32.030;115.880;2023-04-30T11:56:28;101949.41;;;17.40;63.17
72370;BME280;60343;-32.030;115.880;2023-04-30T11:59:11;101961.63;;;17.36;63.94
72370;BME280;60343;-32.030;115.880;2023-04-30T12:01:45;101964.75;;;17.19;64.45
72370;BME280;60343;-32.030;115.880;2023-04-30T12:04:20;101960.53;;;17.16;64.59
72370;BME280;60343;-32.030;115.880;2023-04-30T12:06:55;101960.63;;;17.08;65.21
72370;BME280;60343;-32.030;115.880;2023-04-30T12:09:29;101966.16;;;17.00;65.45
72370;BME280;60343;-32.030;115.880;2023-04-30T12:12:12;101971.19;;;17.17;65.18
72370;BME280;60343;-32.030;115.880;2023-04-30T12:14:52;101971.63;;;17.06;65.29
72370;BME280;60343;-32.030;115.880;2023-04-30T12:17:33;101977.31;;;16.97;66.40
72370;BME280;60343;-32.030;115.880;2023-04-30T12:20:09;101978.91;;;16.91;66.47
72370;BME280;60343;-32.030;115.880;2023-04-30T12:22:45;101979.34;;;16.80;66.40
72370;BME280;60343;-32.030;115.880;2023-04-30T12:25:20;101986.38;;;16.75;66.78
72370;BME280;60343;-32.030;115.880;2023-04-30T12:27:58;101987.97;;;16.84;67.05
72370;BME280;60343;-32.030;115.880;2023-04-30T12:30:39;101991.00;;;16.81;67.38
72370;BME280;60343;-32.030;115.880;2023-04-30T12:33:17;101992.84;;;16.65;67.92
72370;BME280;60343;-32.030;115.880;2023-04-30T12:35:52;101990.25;;;16.72;67.79
72370;BME280;60343;-32.030;115.880;2023-04-30T12:38:27;101992.38;;;16.62;68.14
72370;BME280;60343;-32.030;115.880;2023-04-30T12:41:05;101983.53;;;16.45;68.41
72370;BME280;60343;-32.030;115.880;2023-04-30T12:43:40;101988.25;;;16.28;69.13
72370;BME280;60343;-32.030;115.880;2023-04-30T12:46:25;101985.19;;;16.09;69.91
72370;BME280;60343;-32.030;115.880;2023-04-30T12:49:00;101979.06;;;15.92;69.94
72370;BME280;60343;-32.030;115.880;2023-04-30T12:51:36;101983.53;;;16.00;70.79
72370;BME280;60343;-32.030;115.880;2023-04-30T12:54:10;101980.59;;;15.86;70.54
72370;BME280;60343;-32.030;115.880;2023-04-30T12:56:58;101990.31;;;15.73;71.13
72370;BME280;60343;-32.030;115.880;2023-04-30T12:59:35;101988.16;;;15.60;71.71
72370;BME280;60343;-32.030;115.880;2023-04-30T13:02:15;101989.53;;;15.56;72.42
72370;BME280;60343;-32.030;115.880;2023-04-30T13:04:50;102000.34;;;15.48;72.84
72370;BME280;60343;-32.030;115.880;2023-04-30T13:07:24;102001.38;;;15.47;72.95
72370;BME280;60343;-32.030;115.880;2023-04-30T13:09:59;102009.31;;;15.40;73.54